createdAt,value
2023-04-24T00:01:21.977Z,99897.06
2023-04-24T00:03:45.784Z,99893.16
2023-04-24T00:06:09.960Z,99882.69
2023-04-24T00:08:35.129Z,99884.56
2023-04-24T00:10:58.861Z,99885.00
2023-04-24T00:13:22.465Z,99878.09
2023-04-24T00:15:46.074Z,99872.03
2023-04-24T00:18:09.673Z,99875.25
2023-04-24T00:20:34.470Z,99870.22
2023-04-24T00:22:58.246Z,99864.94
2023-04-24T00:25:23.515Z,99861.03
2023-04-24T00:27:47.146Z,99860.56
2023-04-24T00:30:11.865Z,99849.72
2023-04-24T00:32:35.540Z,99863.00
2023-04-24T00:34:59.153Z,99856.41
2023-04-24T00:37:22.743Z,99847.50
2023-04-24T00:39:46.636Z,99849.50
2023-04-24T00:42:11.912Z,99844.88
2023-04-24T00:44:36.357Z,99846.13
2023-04-24T00:47:01.442Z,99836.53
2023-04-24T00:49:25.243Z,99828.00
2023-04-24T00:51:50.329Z,99824.66
2023-04-24T00:54:14.016Z,99825.66
2023-04-24T00:56:37.852Z,99819.28
2023-04-24T00:59:03.023Z,99807.13
2023-04-24T01:01:27.019Z,99803.75
2023-04-24T01:03:53.764Z,99808.97
2023-04-24T01:06:18.248Z,99806.28
2023-04-24T01:08:43.761Z,99801.75
2023-04-24T01:11:07.626Z,99805.75
2023-04-24T01:13:31.461Z,99812.13
2023-04-24T01:15:56.432Z,99825.50
2023-04-24T01:18:20.109Z,99821.47
2023-04-24T01:20:46.138Z,99822.25
2023-04-24T01:23:11.554Z,99825.31
2023-04-24T01:25:35.660Z,99820.97
2023-04-24T01:27:59.480Z,99821.06
2023-04-24T01:30:23.104Z,99820.22
2023-04-24T01:32:47.900Z,99826.44
2023-04-24T01:35:11.961Z,99821.69
2023-04-24T01:37:38.170Z,99817.44
2023-04-24T01:40:04.654Z,99810.06
2023-04-24T01:42:28.697Z,99812.22
2023-04-24T01:44:52.992Z,99812.91
2023-04-24T01:47:16.745Z,99804.31
2023-04-24T01:49:41.681Z,99807.13
2023-04-24T01:52:05.715Z,99789.81
2023-04-24T01:54:29.330Z,99806.19
2023-04-24T01:56:54.554Z,99799.34
2023-04-24T01:59:19.874Z,99792.34
2023-04-24T02:01:43.447Z,99789.34
2023-04-24T02:04:08.989Z,99789.81
2023-04-24T02:06:33.334Z,99778.06
2023-04-24T02:08:57.963Z,99789.75
2023-04-24T02:11:21.822Z,99788.94
2023-04-24T02:13:46.890Z,99787.41
2023-04-24T02:16:10.617Z,99781.50
2023-04-24T02:18:34.206Z,99788.41
2023-04-24T02:20:57.801Z,99786.63
2023-04-24T02:23:21.530Z,99780.38
2023-04-24T02:25:45.228Z,99779.69
2023-04-24T02:28:08.825Z,99778.03
2023-04-24T02:30:33.794Z,99774.47
2023-04-24T02:32:57.400Z,99767.91
2023-04-24T02:35:21.125Z,99774.53
2023-04-24T02:37:44.690Z,99777.06
2023-04-24T02:40:11.482Z,99775.91
2023-04-24T02:42:35.027Z,99761.19
2023-04-24T02:44:58.614Z,99760.66
2023-04-24T02:47:23.600Z,99762.50
2023-04-24T02:49:47.231Z,99762.53
2023-04-24T02:52:11.457Z,99763.06
2023-04-24T02:54:35.115Z,99756.38
2023-04-24T02:56:58.935Z,99759.19
2023-04-24T02:59:22.671Z,99765.63
2023-04-24T03:01:46.325Z,99756.38
2023-04-24T03:04:14.630Z,99755.88
2023-04-24T03:06:38.254Z,99751.09
2023-04-24T03:09:01.877Z,99757.63
2023-04-24T03:11:25.481Z,99763.41
2023-04-24T03:13:49.230Z,99766.09
2023-04-24T03:16:12.859Z,99770.50
2023-04-24T03:18:36.502Z,99774.22
2023-04-24T03:21:04.532Z,99771.88
2023-04-24T03:23:28.690Z,99769.97
2023-04-24T03:25:52.497Z,99774.22
2023-04-24T03:28:17.218Z,99774.34
2023-04-24T03:30:45.678Z,99776.94
2023-04-24T03:33:10.850Z,99779.94
2023-04-24T03:35:40.811Z,99774.25
2023-04-24T03:38:08.616Z,99784.34
2023-04-24T03:40:41.393Z,99766.78
2023-04-24T03:43:19.207Z,99770.41
2023-04-24T03:45:43.567Z,99768.34
2023-04-24T03:48:08.672Z,99769.53
2023-04-24T03:50:32.438Z,99774.25
2023-04-24T03:52:56.382Z,99773.09
2023-04-24T03:55:32.695Z,99770.56
2023-04-24T03:57:56.408Z,99775.47
2023-04-24T04:00:20.498Z,99770.13
2023-04-24T04:02:50.244Z,99769.94
2023-04-24T04:05:13.944Z,99770.97
2023-04-24T04:07:38.795Z,99770.31
2023-04-24T04:10:02.544Z,99765.97
2023-04-24T04:12:27.809Z,99769.00
2023-04-24T04:14:51.427Z,99760.09
2023-04-24T04:17:15.443Z,99761.59
2023-04-24T04:19:39.680Z,99767.16
2023-04-24T04:22:03.546Z,99762.09
2023-04-24T04:24:39.020Z,99757.38
2023-04-24T04:27:03.334Z,99757.03
2023-04-24T04:29:33.774Z,99763.94
2023-04-24T04:31:58.708Z,99759.69
2023-04-24T04:34:23.622Z,99760.22
2023-04-24T04:36:48.417Z,99766.47
2023-04-24T04:39:29.235Z,99771.59
2023-04-24T04:42:01.647Z,99762.53
2023-04-24T04:44:33.768Z,99762.63
2023-04-24T04:46:58.365Z,99768.69
2023-04-24T04:49:29.598Z,99765.00
2023-04-24T04:51:54.046Z,99776.44
2023-04-24T04:54:18.675Z,99771.25
2023-04-24T04:56:42.904Z,99780.19
2023-04-24T04:59:07.463Z,99790.94
2023-04-24T05:01:34.187Z,99781.47
2023-04-24T05:03:58.033Z,99784.06
2023-04-24T05:06:24.247Z,99786.91
2023-04-24T05:08:49.775Z,99791.28
2023-04-24T05:11:30.664Z,99799.91
2023-04-24T05:13:55.485Z,99791.22
2023-04-24T05:16:26.937Z,99787.81
2023-04-24T05:18:53.657Z,99783.44
2023-04-24T05:21:22.305Z,99777.88
2023-04-24T05:26:18.827Z,99789.66
2023-04-24T05:28:42.457Z,99798.59
2023-04-24T05:31:09.056Z,99792.88
2023-04-24T05:33:33.259Z,99795.25
2023-04-24T05:36:01.252Z,99800.81
2023-04-24T05:38:25.380Z,99803.03
2023-04-24T05:40:48.978Z,99798.47
2023-04-24T05:43:12.582Z,99802.84
2023-04-24T05:45:37.087Z,99798.13
2023-04-24T05:48:00.737Z,99796.28
2023-04-24T05:50:24.528Z,99801.00
2023-04-24T05:52:49.705Z,99809.63
2023-04-24T05:55:22.909Z,99806.59
2023-04-24T05:57:46.807Z,99802.47
2023-04-24T06:00:13.115Z,99813.75
2023-04-24T06:02:47.503Z,99810.19
2023-04-24T06:05:11.601Z,99802.59
2023-04-24T06:07:35.265Z,99807.84
2023-04-24T06:10:03.261Z,99804.66
2023-04-24T06:12:31.650Z,99812.97
2023-04-24T06:15:00.137Z,99803.06
2023-04-24T06:17:43.238Z,99820.94
2023-04-24T06:20:09.306Z,99819.13
2023-04-24T06:22:32.876Z,99810.84
2023-04-24T06:24:56.470Z,99811.19
2023-04-24T06:27:23.237Z,99799.50
2023-04-24T06:29:46.835Z,99815.00
2023-04-24T06:32:10.442Z,99817.28
2023-04-24T06:34:35.197Z,99825.38
2023-04-24T06:36:59.106Z,99815.28
2023-04-24T06:39:22.712Z,99817.13
2023-04-24T06:41:46.241Z,99818.94
2023-04-24T06:44:18.438Z,99817.72
2023-04-24T06:46:42.222Z,99817.94
2023-04-24T06:49:05.801Z,99810.69
2023-04-24T06:51:29.797Z,99819.59
2023-04-24T06:53:54.790Z,99822.56
2023-04-24T06:56:18.495Z,99824.59
2023-04-24T06:58:42.066Z,99813.34
2023-04-24T07:01:07.329Z,99813.38
2023-04-24T07:03:32.366Z,99799.09
2023-04-24T07:05:58.888Z,99816.28
2023-04-24T07:08:23.142Z,99811.03
2023-04-24T07:10:47.100Z,99805.34
2023-04-24T07:13:10.762Z,99808.31
2023-04-24T07:15:35.040Z,99807.41
2023-04-24T07:18:00.023Z,99812.09
2023-04-24T07:20:24.041Z,99806.22
2023-04-24T07:22:47.568Z,99812.91
2023-04-24T07:25:11.887Z,99809.44
2023-04-24T07:27:36.020Z,99808.09
2023-04-24T07:29:59.650Z,99817.53
2023-04-24T07:32:23.228Z,99803.00
2023-04-24T07:34:48.190Z,99806.78
2023-04-24T07:37:11.819Z,99808.72
2023-04-24T07:39:35.516Z,99809.03
2023-04-24T07:42:00.128Z,99812.63
2023-04-24T07:44:23.813Z,99812.09
2023-04-24T07:46:47.470Z,99809.88
2023-04-24T07:49:13.520Z,99801.94
2023-04-24T07:51:40.193Z,99794.03
2023-04-24T07:54:03.807Z,99788.38
2023-04-24T07:56:28.092Z,99804.91
2023-04-24T07:58:51.916Z,99807.66
2023-04-24T08:01:15.438Z,99802.22
2023-04-24T08:03:39.263Z,99806.81
2023-04-24T08:06:02.976Z,99810.16
2023-04-24T08:08:28.218Z,99815.88
2023-04-24T08:10:52.096Z,99802.75
2023-04-24T08:13:15.699Z,99813.53
2023-04-24T08:15:39.270Z,99807.56
2023-04-24T08:18:03.038Z,99807.25
2023-04-24T08:20:26.824Z,99806.41
2023-04-24T08:22:50.444Z,99806.56
2023-04-24T08:25:15.868Z,99810.53
2023-04-24T08:27:40.000Z,99812.66
2023-04-24T08:30:03.669Z,99794.44
2023-04-24T08:32:28.928Z,99796.06
2023-04-24T08:34:53.770Z,99799.06
2023-04-24T08:37:17.511Z,99796.31
2023-04-24T08:39:41.156Z,99794.47
2023-04-24T08:42:09.280Z,99792.16
2023-04-24T08:44:34.731Z,99800.94
2023-04-24T08:46:58.786Z,99808.97
2023-04-24T08:49:22.902Z,99807.47
2023-04-24T08:51:48.093Z,99802.44
2023-04-24T08:54:11.659Z,99800.97
2023-04-24T08:56:38.782Z,99804.09
2023-04-24T08:59:04.011Z,99798.22
2023-04-24T09:01:29.949Z,99812.06
2023-04-24T09:03:55.933Z,99813.69
2023-04-24T09:06:21.934Z,99817.53
2023-04-24T09:08:47.926Z,99814.00
2023-04-24T09:11:12.450Z,99817.31
2023-04-24T09:13:36.813Z,99818.19
2023-04-24T09:16:02.346Z,99813.88
2023-04-24T09:18:26.178Z,99819.16
2023-04-24T09:21:04.068Z,99817.09
2023-04-24T09:23:30.573Z,99818.59
2023-04-24T09:25:58.073Z,99820.47
2023-04-24T09:28:21.720Z,99816.06
2023-04-24T09:30:45.275Z,99808.31
2023-04-24T09:33:17.824Z,99812.53
2023-04-24T09:35:45.083Z,99806.16
2023-04-24T09:38:08.960Z,99809.53
2023-04-24T09:40:32.694Z,99810.97
2023-04-24T09:42:58.862Z,99816.66
2023-04-24T09:45:23.298Z,99813.34
2023-04-24T09:47:46.937Z,99827.22
2023-04-24T09:50:18.091Z,99823.56
2023-04-24T09:52:44.774Z,99809.53
2023-04-24T09:55:14.581Z,99814.19
2023-04-24T09:57:38.177Z,99812.09
2023-04-24T10:00:01.750Z,99813.69
2023-04-24T10:02:35.414Z,99812.28
2023-04-24T10:05:01.263Z,99807.25
2023-04-24T10:07:28.542Z,99809.09
2023-04-24T10:09:52.276Z,99808.69
2023-04-24T10:12:17.202Z,99803.94
2023-04-24T10:14:42.874Z,99808.72
2023-04-24T10:17:08.697Z,99814.59
2023-04-24T10:19:33.022Z,99809.44
2023-04-24T10:21:58.496Z,99802.41
2023-04-24T10:24:23.518Z,99804.09
2023-04-24T10:26:49.340Z,99800.78
2023-04-24T10:29:16.506Z,99801.59
2023-04-24T10:31:41.213Z,99802.19
2023-04-24T10:34:05.666Z,99809.56
2023-04-24T10:36:33.319Z,99805.38
2023-04-24T10:39:00.094Z,99812.06
2023-04-24T10:41:28.894Z,99812.06
2023-04-24T10:44:07.817Z,99807.38
2023-04-24T10:46:32.919Z,99801.38
2023-04-24T10:48:57.323Z,99793.53
2023-04-24T10:51:24.117Z,99795.66
2023-04-24T10:53:47.759Z,99789.56
2023-04-24T10:56:13.286Z,99782.06
2023-04-24T10:58:46.090Z,99788.81
2023-04-24T11:01:10.304Z,99797.34
2023-04-24T11:03:37.312Z,99807.84
2023-04-24T11:06:03.821Z,99797.66
2023-04-24T11:08:34.047Z,99806.41
2023-04-24T11:11:05.559Z,99801.94
2023-04-24T11:14:05.262Z,99801.44
2023-04-24T11:16:33.788Z,99808.84
2023-04-24T11:19:04.569Z,99805.22
2023-04-24T11:21:29.525Z,99802.91
2023-04-24T11:23:53.198Z,99804.28
2023-04-24T11:26:21.807Z,99809.94
2023-04-24T11:28:49.936Z,99797.31
2023-04-24T11:31:39.625Z,99796.88
2023-04-24T11:34:10.135Z,99800.72
2023-04-24T11:36:34.670Z,99801.47
2023-04-24T11:38:59.125Z,99794.91
2023-04-24T11:41:23.339Z,99790.81
2023-04-24T11:43:47.543Z,99795.06
2023-04-24T11:46:12.015Z,99782.34
2023-04-24T11:48:41.092Z,99782.53
2023-04-24T11:51:04.970Z,99796.75
2023-04-24T11:53:28.481Z,99783.59
2023-04-24T11:55:52.117Z,99788.19
2023-04-24T11:58:15.641Z,99785.22
2023-04-24T12:00:39.419Z,99779.34
2023-04-24T12:03:08.815Z,99777.13
2023-04-24T12:05:34.362Z,99776.81
2023-04-24T12:07:58.001Z,99785.66
2023-04-24T12:10:23.592Z,99776.41
2023-04-24T12:12:48.525Z,99775.84
2023-04-24T12:15:13.534Z,99771.41
2023-04-24T12:17:38.644Z,99773.91
2023-04-24T12:20:05.195Z,99770.38
2023-04-24T12:22:30.415Z,99768.47
2023-04-24T12:25:02.889Z,99755.94
2023-04-24T12:27:26.827Z,99759.00
2023-04-24T12:29:55.614Z,99756.97
2023-04-24T12:32:19.368Z,99765.53
2023-04-24T12:34:45.893Z,99756.72
2023-04-24T12:37:13.165Z,99760.03
2023-04-24T12:39:38.087Z,99770.38
2023-04-24T12:42:02.383Z,99774.97
2023-04-24T12:44:33.211Z,99773.69
2023-04-24T12:46:56.953Z,99778.53
2023-04-24T12:49:20.668Z,99781.81
2023-04-24T12:51:44.270Z,99783.25
2023-04-24T12:54:08.339Z,99773.41
2023-04-24T12:56:33.370Z,99776.41
2023-04-24T12:58:56.955Z,99773.91
2023-04-24T13:01:20.621Z,99776.41
2023-04-24T13:03:44.934Z,99768.66
2023-04-24T13:06:08.877Z,99782.72
2023-04-24T13:08:32.426Z,99779.78
2023-04-24T13:10:56.061Z,99773.06
2023-04-24T13:13:20.976Z,99768.06
2023-04-24T13:15:44.533Z,99776.84
2023-04-24T13:18:08.072Z,99778.91
2023-04-24T13:20:31.950Z,99773.72
2023-04-24T13:22:55.782Z,99778.31
2023-04-24T13:25:21.423Z,99779.72
2023-04-24T13:27:44.941Z,99782.16
2023-04-24T13:30:11.910Z,99769.31
2023-04-24T13:32:36.459Z,99774.34
2023-04-24T13:35:00.377Z,99771.19
2023-04-24T13:37:24.305Z,99758.38
2023-04-24T13:39:47.885Z,99755.91
2023-04-24T13:42:11.826Z,99757.59
2023-04-24T13:44:35.575Z,99759.91
2023-04-24T13:47:01.187Z,99761.22
2023-04-24T13:49:27.060Z,99753.19
2023-04-24T13:51:50.765Z,99752.31
2023-04-24T13:54:14.496Z,99755.50
2023-04-24T13:56:38.216Z,99749.81
2023-04-24T13:59:02.006Z,99750.75
2023-04-24T14:01:26.064Z,99758.84
2023-04-24T14:03:51.797Z,99754.59
2023-04-24T14:06:15.586Z,99755.03
2023-04-24T14:08:39.211Z,99762.56
2023-04-24T14:11:04.489Z,99751.16
2023-04-24T14:13:28.739Z,99751.66
2023-04-24T14:15:53.655Z,99757.00
2023-04-24T14:18:17.448Z,99750.66
2023-04-24T14:20:42.426Z,99751.69
2023-04-24T14:23:06.556Z,99749.63
2023-04-24T14:25:30.112Z,99751.69
2023-04-24T14:27:54.052Z,99754.44
2023-04-24T14:30:17.953Z,99747.53
2023-04-24T14:32:41.911Z,99751.28
2023-04-24T14:35:06.592Z,99760.59
2023-04-24T14:37:31.863Z,99762.56
2023-04-24T14:40:11.032Z,99758.28
2023-04-24T14:42:35.291Z,99753.34
2023-04-24T14:44:58.847Z,99755.47
2023-04-24T14:47:23.270Z,99752.56
2023-04-24T14:49:48.354Z,99758.44
2023-04-24T14:52:12.086Z,99763.16
2023-04-24T14:54:37.069Z,99759.06
2023-04-24T14:57:02.297Z,99764.16
2023-04-24T14:59:25.957Z,99760.88
2023-04-24T15:01:50.057Z,99750.88
2023-04-24T15:04:14.490Z,99768.44
2023-04-24T15:06:38.309Z,99762.97
2023-04-24T15:09:02.035Z,99775.94
2023-04-24T15:11:27.122Z,99780.13
2023-04-24T15:13:50.927Z,99784.75
2023-04-24T15:16:14.685Z,99770.72
2023-04-24T15:18:38.297Z,99780.63
2023-04-24T15:21:01.977Z,99785.69
2023-04-24T15:23:25.536Z,99789.53
2023-04-24T15:25:49.748Z,99781.38
2023-04-24T15:28:14.819Z,99788.72
2023-04-24T15:30:38.542Z,99790.88
2023-04-24T15:33:02.798Z,99788.28
2023-04-24T15:35:28.113Z,99787.56
2023-04-24T15:37:51.741Z,99800.63
2023-04-24T15:40:16.782Z,99791.00
2023-04-24T15:42:41.011Z,99803.34
2023-04-24T15:45:06.681Z,99804.91
2023-04-24T15:47:30.663Z,99806.19
2023-04-24T15:49:54.800Z,99796.00
2023-04-24T15:52:18.519Z,99802.34
2023-04-24T15:54:42.265Z,99804.69
2023-04-24T15:57:05.877Z,99799.94
2023-04-24T15:59:31.366Z,99809.78
2023-04-24T16:01:56.875Z,99798.72
2023-04-24T16:04:20.780Z,99801.41
2023-04-24T16:06:44.418Z,99809.25
2023-04-24T16:09:08.625Z,99807.84
2023-04-24T16:11:32.806Z,99804.63
2023-04-24T16:13:56.476Z,99806.53
2023-04-24T16:16:20.076Z,99814.84
2023-04-24T16:18:45.139Z,99809.34
2023-04-24T16:21:09.404Z,99824.81
2023-04-24T16:23:33.036Z,99811.63
2023-04-24T16:25:56.582Z,99823.97
2023-04-24T16:28:20.534Z,99829.66
2023-04-24T16:30:44.177Z,99831.66
2023-04-24T16:33:09.226Z,99867.56
2023-04-24T16:35:34.307Z,99866.41
2023-04-24T16:37:57.940Z,99873.13
2023-04-24T16:40:22.066Z,99873.41
2023-04-24T16:42:45.670Z,99869.47
2023-04-24T16:45:11.003Z,99889.19
2023-04-24T16:47:34.784Z,99883.66
2023-04-24T16:49:58.484Z,99880.16
2023-04-24T16:52:23.505Z,99886.47
2023-04-24T16:54:47.029Z,99888.06
2023-04-24T16:57:10.795Z,99892.03
2023-04-24T16:59:35.118Z,99894.63
2023-04-24T17:01:58.775Z,99890.84
2023-04-24T17:04:22.469Z,99903.03
2023-04-24T17:06:46.182Z,99902.53
2023-04-24T17:09:13.045Z,99915.75
2023-04-24T17:11:37.164Z,99914.28
2023-04-24T17:14:00.820Z,99914.38
2023-04-24T17:16:24.814Z,99920.25
2023-04-24T17:18:48.611Z,99922.59
2023-04-24T17:21:12.520Z,99920.19
2023-04-24T17:23:37.416Z,99932.63
2023-04-24T17:26:03.883Z,99926.97
2023-04-24T17:28:29.615Z,99940.41
2023-04-24T17:30:55.521Z,99945.78
2023-04-24T17:33:19.118Z,99955.41
2023-04-24T17:35:42.814Z,99948.66
2023-04-24T17:38:06.372Z,99955.69
2023-04-24T17:40:30.162Z,99960.78
2023-04-24T17:42:55.065Z,99956.06
2023-04-24T17:45:18.692Z,99957.38
2023-04-24T17:47:42.434Z,99959.56
2023-04-24T17:50:07.246Z,99968.84
2023-04-24T17:52:30.999Z,99972.25
2023-04-24T17:54:54.648Z,99969.16
2023-04-24T17:57:18.220Z,99978.06
2023-04-24T17:59:43.345Z,99979.63
2023-04-24T18:02:06.964Z,99987.75
2023-04-24T18:04:30.707Z,99994.63
2023-04-24T18:06:54.339Z,99989.66
2023-04-24T18:09:20.753Z,100008.94
2023-04-24T18:11:44.422Z,99999.38
2023-04-24T18:14:08.125Z,100019.25
2023-04-24T18:16:33.065Z,100019.59
2023-04-24T18:18:56.758Z,100038.97
2023-04-24T18:21:20.757Z,100042.97
2023-04-24T18:23:44.804Z,100044.38
2023-04-24T18:26:08.420Z,100060.25
2023-04-24T18:28:34.711Z,100048.09
2023-04-24T18:30:58.489Z,100055.97
2023-04-24T18:33:23.518Z,100071.56
2023-04-24T18:35:47.071Z,100081.41
2023-04-24T18:38:10.679Z,100086.63
2023-04-24T18:40:34.205Z,100083.50
2023-04-24T18:42:58.242Z,100088.66
2023-04-24T18:45:21.972Z,100097.88
2023-04-24T18:47:45.760Z,100095.78
2023-04-24T18:50:12.363Z,100096.13
2023-04-24T18:52:36.100Z,100099.78
2023-04-24T18:55:00.288Z,100106.41
2023-04-24T18:57:23.923Z,100109.97
2023-04-24T18:59:47.541Z,100111.88
2023-04-24T19:02:11.416Z,100105.84
2023-04-24T19:04:35.157Z,100124.09
2023-04-24T19:07:00.177Z,100128.88
2023-04-24T19:09:23.775Z,100136.03
2023-04-24T19:11:47.706Z,100141.19
2023-04-24T19:14:11.317Z,100138.59
2023-04-24T19:16:35.032Z,100145.09
2023-04-24T19:18:58.598Z,100155.97
2023-04-24T19:21:22.980Z,100151.59
2023-04-24T19:23:50.418Z,100158.66
2023-04-24T19:26:14.521Z,100152.16
2023-04-24T19:28:39.203Z,100156.00
2023-04-24T19:31:03.521Z,100147.75
2023-04-24T19:33:27.075Z,100154.22
2023-04-24T19:35:50.769Z,100149.47
2023-04-24T19:38:14.350Z,100154.25
2023-04-24T19:40:39.455Z,100159.09
2023-04-24T19:43:03.007Z,100156.41
2023-04-24T19:45:26.630Z,100158.13
2023-04-24T19:47:50.360Z,100162.38
2023-04-24T19:50:15.004Z,100159.41
2023-04-24T19:52:38.722Z,100168.00
2023-04-24T19:55:02.539Z,100169.88
2023-04-24T19:57:27.465Z,100167.03
2023-04-24T19:59:51.090Z,100153.03
2023-04-24T20:02:14.824Z,100157.84
2023-04-24T20:04:38.850Z,100152.19
2023-04-24T20:07:02.610Z,100149.38
2023-04-24T20:09:26.243Z,100158.56
2023-04-24T20:11:51.299Z,100156.88
2023-04-24T20:14:16.419Z,100156.16
2023-04-24T20:16:40.580Z,100154.47
2023-04-24T20:19:04.256Z,100159.56
2023-04-24T20:21:27.970Z,100163.41
2023-04-24T20:23:52.947Z,100156.19
2023-04-24T20:26:16.540Z,100166.34
2023-04-24T20:28:40.189Z,100171.81
2023-04-24T20:31:05.515Z,100168.59
2023-04-24T20:33:30.467Z,100165.16
2023-04-24T20:35:54.012Z,100162.13
2023-04-24T20:38:18.617Z,100170.72
2023-04-24T20:40:56.128Z,100179.94
2023-04-24T20:43:23.028Z,100173.44
2023-04-24T20:45:46.966Z,100179.91
2023-04-24T20:48:12.862Z,100167.03
2023-04-24T20:50:41.311Z,100164.09
2023-04-24T20:53:05.866Z,100169.19
2023-04-24T20:55:29.476Z,100158.16
2023-04-24T20:57:53.649Z,100171.16
2023-04-24T21:00:17.922Z,100161.97
2023-04-24T21:02:41.600Z,100166.47
2023-04-24T21:05:08.063Z,100157.72
2023-04-24T21:07:31.862Z,100160.25
2023-04-24T21:09:55.499Z,100161.41
2023-04-24T21:12:19.232Z,100158.88
2023-04-24T21:14:42.884Z,100161.97
2023-04-24T21:17:06.562Z,100157.47
2023-04-24T21:19:30.145Z,100166.06
2023-04-24T21:21:55.133Z,100160.97
2023-04-24T21:24:18.628Z,100158.72
2023-04-24T21:26:42.349Z,100153.91
2023-04-24T21:29:05.993Z,100155.88
2023-04-24T21:31:29.678Z,100148.53
2023-04-24T21:33:53.191Z,100152.94
2023-04-24T21:36:16.905Z,100155.88
2023-04-24T21:38:41.883Z,100147.09
2023-04-24T21:41:05.593Z,100152.22
2023-04-24T21:43:43.497Z,100144.72
2023-04-24T21:46:08.564Z,100152.06
2023-04-24T21:48:32.144Z,100152.72
2023-04-24T21:50:55.825Z,100147.81
2023-04-24T21:53:19.339Z,100150.25
2023-04-24T21:55:44.380Z,100151.94
2023-04-24T21:58:07.924Z,100155.16
2023-04-24T22:00:31.602Z,100151.75
2023-04-24T22:02:55.230Z,100147.25
2023-04-24T22:05:20.341Z,100143.84
2023-04-24T22:07:47.135Z,100154.44
2023-04-24T22:10:13.932Z,100142.28
2023-04-24T22:12:39.259Z,100155.44
2023-04-24T22:15:04.144Z,100150.81
2023-04-24T22:17:28.003Z,100145.69
2023-04-24T22:19:51.716Z,100138.78
2023-04-24T22:22:15.382Z,100140.34
2023-04-24T22:24:39.069Z,100149.09
2023-04-24T22:27:03.000Z,100146.69
2023-04-24T22:29:28.067Z,100148.69
2023-04-24T22:31:51.782Z,100149.38
2023-04-24T22:34:17.074Z,100156.84
2023-04-24T22:36:40.867Z,100140.91
2023-04-24T22:39:05.454Z,100147.81
2023-04-24T22:41:28.994Z,100143.56
2023-04-24T22:43:52.734Z,100144.00
2023-04-24T22:46:18.409Z,100149.63
2023-04-24T22:48:42.042Z,100138.22
2023-04-24T22:51:06.613Z,100146.69
2023-04-24T22:53:30.316Z,100152.31
2023-04-24T22:55:53.905Z,100146.13
2023-04-24T22:58:17.593Z,100152.78
2023-04-24T23:00:41.200Z,100148.22
2023-04-24T23:03:06.833Z,100143.16
2023-04-24T23:05:31.128Z,100141.41
2023-04-24T23:07:54.928Z,100151.88
2023-04-24T23:10:18.585Z,100150.81
2023-04-24T23:12:42.215Z,100158.94
2023-04-24T23:15:07.227Z,100146.69
2023-04-24T23:17:30.857Z,100146.59
2023-04-24T23:19:55.923Z,100146.25
2023-04-24T23:22:19.653Z,100143.50
2023-04-24T23:24:43.239Z,100144.09
2023-04-24T23:27:06.983Z,100144.25
2023-04-24T23:29:30.629Z,100144.25
2023-04-24T23:31:54.660Z,100136.28
2023-04-24T23:34:20.118Z,100132.06
2023-04-24T23:36:45.170Z,100129.13
2023-04-24T23:39:08.764Z,100131.25
2023-04-24T23:41:32.927Z,100127.19
2023-04-24T23:43:56.455Z,100128.97
2023-04-24T23:46:20.193Z,100130.81
2023-04-24T23:48:43.760Z,100123.72
2023-04-24T23:51:07.690Z,100128.28
2023-04-24T23:53:32.611Z,100123.03
2023-04-24T23:55:56.426Z,100125.72
2023-04-24T23:58:19.970Z,100127.25
